sensor_id;sensor_type;location;lat;lon;timestamp;P1;durP1;ratioP1;P2;durP2;ratioP2
76848;SDS011;65814;51.134;16.980;2023-07-13T00:02:28;7.20;;;6.10;;
76848;SDS011;65814;51.134;16.980;2023-07-13T00:04:55;12.00;;;7.20;;
76848;SDS011;65814;51.134;16.980;2023-07-13T00:07:23;8.30;;;5.90;;
76848;SDS011;65814;51.134;16.980;2023-07-13T00:09:51;6.30;;;5.10;;
76848;SDS011;65814;51.134;16.980;2023-07-13T00:12:21;7.00;;;5.30;;
76848;SDS011;65814;51.134;16.980;2023-07-13T00:14:51;7.50;;;5.60;;
76848;SDS011;65814;51.134;16.980;2023-07-13T00:17:19;7.00;;;5.80;;
76848;SDS011;65814;51.134;16.980;2023-07-13T00:19:47;7.40;;;5.70;;
76848;SDS011;65814;51.134;16.980;2023-07-13T00:22:15;7.70;;;6.00;;
76848;SDS011;65814;51.134;16.980;2023-07-13T00:24:45;8.00;;;5.50;;
76848;SDS011;65814;51.134;16.980;2023-07-13T00:27:13;7.20;;;5.30;;
76848;SDS011;65814;51.134;16.980;2023-07-13T00:29:41;6.90;;;5.60;;
76848;SDS011;65814;51.134;16.980;2023-07-13T00:32:09;7.20;;;5.00;;
76848;SDS011;65814;51.134;16.980;2023-07-13T00:34:37;7.60;;;5.60;;
76848;SDS011;65814;51.134;16.980;2023-07-13T00:37:06;7.10;;;5.50;;
76848;SDS011;65814;51.134;16.980;2023-07-13T00:39:35;7.70;;;5.20;;
76848;SDS011;65814;51.134;16.980;2023-07-13T00:42:03;8.60;;;5.30;;
76848;SDS011;65814;51.134;16.980;2023-07-13T00:44:32;7.60;;;5.90;;
76848;SDS011;65814;51.134;16.980;2023-07-13T00:47:00;8.30;;;5.40;;
76848;SDS011;65814;51.134;16.980;2023-07-13T00:49:29;9.50;;;5.20;;
76848;SDS011;65814;51.134;16.980;2023-07-13T00:51:59;8.30;;;6.10;;
76848;SDS011;65814;51.134;16.980;2023-07-13T00:54:34;8.10;;;5.90;;
76848;SDS011;65814;51.134;16.980;2023-07-13T00:57:06;7.40;;;5.00;;
76848;SDS011;65814;51.134;16.980;2023-07-13T00:59:36;7.20;;;4.90;;
76848;SDS011;65814;51.134;16.980;2023-07-13T01:02:06;6.10;;;5.40;;
76848;SDS011;65814;51.134;16.980;2023-07-13T01:04:34;8.60;;;6.30;;
76848;SDS011;65814;51.134;16.980;2023-07-13T01:07:02;6.00;;;5.30;;
76848;SDS011;65814;51.134;16.980;2023-07-13T01:09:33;8.60;;;5.10;;
76848;SDS011;65814;51.134;16.980;2023-07-13T01:12:01;8.00;;;5.40;;
76848;SDS011;65814;51.134;16.980;2023-07-13T01:14:30;7.70;;;5.80;;
76848;SDS011;65814;51.134;16.980;2023-07-13T01:16:59;7.80;;;5.00;;
76848;SDS011;65814;51.134;16.980;2023-07-13T01:22:08;7.60;;;4.90;;
76848;SDS011;65814;51.134;16.980;2023-07-13T01:24:40;7.50;;;5.20;;
76848;SDS011;65814;51.134;16.980;2023-07-13T01:27:11;6.60;;;4.80;;
76848;SDS011;65814;51.134;16.980;2023-07-13T01:29:41;8.20;;;5.30;;
76848;SDS011;65814;51.134;16.980;2023-07-13T01:32:11;5.50;;;4.90;;
76848;SDS011;65814;51.134;16.980;2023-07-13T01:34:41;5.50;;;4.60;;
76848;SDS011;65814;51.134;16.980;2023-07-13T01:37:11;7.10;;;5.10;;
76848;SDS011;65814;51.134;16.980;2023-07-13T01:39:39;7.80;;;5.20;;
76848;SDS011;65814;51.134;16.980;2023-07-13T01:42:07;6.80;;;6.10;;
76848;SDS011;65814;51.134;16.980;2023-07-13T01:44:53;7.40;;;5.00;;
76848;SDS011;65814;51.134;16.980;2023-07-13T01:47:22;7.20;;;5.60;;
76848;SDS011;65814;51.134;16.980;2023-07-13T01:49:50;8.80;;;4.80;;
76848;SDS011;65814;51.134;16.980;2023-07-13T01:52:19;5.30;;;4.60;;
76848;SDS011;65814;51.134;16.980;2023-07-13T01:54:47;6.60;;;5.10;;
76848;SDS011;65814;51.134;16.980;2023-07-13T01:57:17;10.00;;;5.50;;
76848;SDS011;65814;51.134;16.980;2023-07-13T01:59:45;6.30;;;5.40;;
76848;SDS011;65814;51.134;16.980;2023-07-13T02:02:13;12.50;;;5.30;;
76848;SDS011;65814;51.134;16.980;2023-07-13T02:04:41;7.10;;;5.50;;
76848;SDS011;65814;51.134;16.980;2023-07-13T02:07:09;5.70;;;4.90;;
76848;SDS011;65814;51.134;16.980;2023-07-13T02:09:37;7.20;;;5.60;;
76848;SDS011;65814;51.134;16.980;2023-07-13T02:12:06;8.40;;;6.00;;
76848;SDS011;65814;51.134;16.980;2023-07-13T02:14:34;8.10;;;6.10;;
76848;SDS011;65814;51.134;16.980;2023-07-13T02:17:02;7.50;;;5.40;;
76848;SDS011;65814;51.134;16.980;2023-07-13T02:19:31;7.10;;;5.30;;
76848;SDS011;65814;51.134;16.980;2023-07-13T02:21:59;7.80;;;6.50;;
76848;SDS011;65814;51.134;16.980;2023-07-13T02:24:27;6.30;;;5.20;;
76848;SDS011;65814;51.134;16.980;2023-07-13T02:26:55;7.60;;;5.10;;
76848;SDS011;65814;51.134;16.980;2023-07-13T02:29:23;6.30;;;5.20;;
76848;SDS011;65814;51.134;16.980;2023-07-13T02:31:51;9.20;;;5.90;;
76848;SDS011;65814;51.134;16.980;2023-07-13T02:34:22;9.30;;;5.40;;
76848;SDS011;65814;51.134;16.980;2023-07-13T02:36:50;7.70;;;6.10;;
76848;SDS011;65814;51.134;16.980;2023-07-13T02:39:18;8.30;;;6.10;;
76848;SDS011;65814;51.134;16.980;2023-07-13T02:41:46;9.10;;;6.50;;
76848;SDS011;65814;51.134;16.980;2023-07-13T02:44:14;9.00;;;5.80;;
76848;SDS011;65814;51.134;16.980;2023-07-13T02:46:42;9.20;;;6.20;;
76848;SDS011;65814;51.134;16.980;2023-07-13T02:49:10;7.40;;;5.70;;
76848;SDS011;65814;51.134;16.980;2023-07-13T02:51:38;7.40;;;5.90;;
76848;SDS011;65814;51.134;16.980;2023-07-13T02:54:06;6.60;;;5.70;;
76848;SDS011;65814;51.134;16.980;2023-07-13T02:56:36;7.50;;;6.50;;
76848;SDS011;65814;51.134;16.980;2023-07-13T02:59:06;8.60;;;5.70;;
76848;SDS011;65814;51.134;16.980;2023-07-13T03:01:34;9.10;;;6.50;;
76848;SDS011;65814;51.134;16.980;2023-07-13T03:04:03;8.20;;;5.30;;
76848;SDS011;65814;51.134;16.980;2023-07-13T03:06:31;9.50;;;6.40;;
76848;SDS011;65814;51.134;16.980;2023-07-13T03:09:00;8.80;;;5.70;;
76848;SDS011;65814;51.134;16.980;2023-07-13T03:11:28;10.20;;;6.20;;
76848;SDS011;65814;51.134;16.980;2023-07-13T03:13:57;8.50;;;5.90;;
76848;SDS011;65814;51.134;16.980;2023-07-13T03:16:25;9.80;;;6.50;;
76848;SDS011;65814;51.134;16.980;2023-07-13T03:18:53;9.70;;;7.10;;
76848;SDS011;65814;51.134;16.980;2023-07-13T03:21:21;10.40;;;7.00;;
76848;SDS011;65814;51.134;16.980;2023-07-13T03:23:49;8.70;;;6.20;;
76848;SDS011;65814;51.134;16.980;2023-07-13T03:26:18;8.00;;;6.10;;
76848;SDS011;65814;51.134;16.980;2023-07-13T03:28:47;10.50;;;6.00;;
76848;SDS011;65814;51.134;16.980;2023-07-13T03:31:17;8.50;;;6.40;;
76848;SDS011;65814;51.134;16.980;2023-07-13T03:33:46;9.70;;;6.60;;
76848;SDS011;65814;51.134;16.980;2023-07-13T03:36:17;8.60;;;6.00;;
76848;SDS011;65814;51.134;16.980;2023-07-13T03:38:48;6.90;;;6.00;;
76848;SDS011;65814;51.134;16.980;2023-07-13T03:41:17;8.80;;;6.50;;
76848;SDS011;65814;51.134;16.980;2023-07-13T03:43:45;7.50;;;6.50;;
76848;SDS011;65814;51.134;16.980;2023-07-13T03:46:15;7.30;;;5.80;;
76848;SDS011;65814;51.134;16.980;2023-07-13T03:48:44;9.40;;;6.50;;
76848;SDS011;65814;51.134;16.980;2023-07-13T03:51:13;11.40;;;6.20;;
76848;SDS011;65814;51.134;16.980;2023-07-13T03:53:44;9.60;;;6.50;;
76848;SDS011;65814;51.134;16.980;2023-07-13T03:56:13;9.70;;;6.40;;
76848;SDS011;65814;51.134;16.980;2023-07-13T03:58:43;9.90;;;6.40;;
76848;SDS011;65814;51.134;16.980;2023-07-13T04:01:13;8.40;;;6.30;;
76848;SDS011;65814;51.134;16.980;2023-07-13T04:03:42;7.10;;;6.10;;
76848;SDS011;65814;51.134;16.980;2023-07-13T04:06:13;7.70;;;6.10;;
76848;SDS011;65814;51.134;16.980;2023-07-13T04:08:51;8.10;;;6.70;;
76848;SDS011;65814;51.134;16.980;2023-07-13T04:11:21;7.80;;;6.00;;
76848;SDS011;65814;51.134;16.980;2023-07-13T04:13:52;9.00;;;6.00;;
76848;SDS011;65814;51.134;16.980;2023-07-13T04:16:20;8.00;;;5.80;;
76848;SDS011;65814;51.134;16.980;2023-07-13T04:18:48;8.30;;;6.60;;
76848;SDS011;65814;51.134;16.980;2023-07-13T04:21:17;12.00;;;7.10;;
76848;SDS011;65814;51.134;16.980;2023-07-13T04:23:44;8.60;;;7.80;;
76848;SDS011;65814;51.134;16.980;2023-07-13T04:26:12;6.60;;;5.60;;
76848;SDS011;65814;51.134;16.980;2023-07-13T04:28:41;5.60;;;4.70;;
76848;SDS011;65814;51.134;16.980;2023-07-13T04:31:08;6.00;;;4.60;;
76848;SDS011;65814;51.134;16.980;2023-07-13T04:33:36;6.00;;;3.70;;
76848;SDS011;65814;51.134;16.980;2023-07-13T04:36:04;7.10;;;4.20;;
76848;SDS011;65814;51.134;16.980;2023-07-13T04:38:32;4.60;;;3.70;;
76848;SDS011;65814;51.134;16.980;2023-07-13T04:41:01;5.90;;;3.50;;
76848;SDS011;65814;51.134;16.980;2023-07-13T04:43:31;4.30;;;3.40;;
76848;SDS011;65814;51.134;16.980;2023-07-13T04:46:13;5.30;;;3.40;;
76848;SDS011;65814;51.134;16.980;2023-07-13T04:48:43;5.60;;;3.80;;
76848;SDS011;65814;51.134;16.980;2023-07-13T04:51:11;5.40;;;3.60;;
76848;SDS011;65814;51.134;16.980;2023-07-13T04:53:39;5.10;;;3.60;;
76848;SDS011;65814;51.134;16.980;2023-07-13T04:56:07;4.90;;;3.60;;
76848;SDS011;65814;51.134;16.980;2023-07-13T04:58:35;6.00;;;3.50;;
76848;SDS011;65814;51.134;16.980;2023-07-13T05:01:04;6.00;;;3.30;;
76848;SDS011;65814;51.134;16.980;2023-07-13T05:03:33;5.40;;;3.50;;
76848;SDS011;65814;51.134;16.980;2023-07-13T05:06:03;7.40;;;3.70;;
76848;SDS011;65814;51.134;16.980;2023-07-13T05:08:33;5.60;;;3.30;;
76848;SDS011;65814;51.134;16.980;2023-07-13T05:11:01;5.50;;;3.30;;
76848;SDS011;65814;51.134;16.980;2023-07-13T05:13:31;5.90;;;2.90;;
76848;SDS011;65814;51.134;16.980;2023-07-13T05:15:59;5.00;;;3.60;;
76848;SDS011;65814;51.134;16.980;2023-07-13T05:18:29;6.70;;;3.30;;
76848;SDS011;65814;51.134;16.980;2023-07-13T05:21:01;4.30;;;3.50;;
76848;SDS011;65814;51.134;16.980;2023-07-13T05:23:31;6.90;;;3.40;;
76848;SDS011;65814;51.134;16.980;2023-07-13T05:26:00;7.00;;;3.20;;
76848;SDS011;65814;51.134;16.980;2023-07-13T05:28:29;3.60;;;3.20;;
76848;SDS011;65814;51.134;16.980;2023-07-13T05:30:58;5.70;;;4.40;;
76848;SDS011;65814;51.134;16.980;2023-07-13T05:33:27;6.20;;;3.40;;
76848;SDS011;65814;51.134;16.980;2023-07-13T05:35:54;4.30;;;3.30;;
76848;SDS011;65814;51.134;16.980;2023-07-13T05:38:22;4.10;;;3.50;;
76848;SDS011;65814;51.134;16.980;2023-07-13T05:40:50;7.40;;;4.00;;
76848;SDS011;65814;51.134;16.980;2023-07-13T05:43:19;5.80;;;3.50;;
76848;SDS011;65814;51.134;16.980;2023-07-13T05:45:46;4.90;;;3.50;;
76848;SDS011;65814;51.134;16.980;2023-07-13T05:48:14;5.00;;;3.40;;
76848;SDS011;65814;51.134;16.980;2023-07-13T05:50:42;6.30;;;3.90;;
76848;SDS011;65814;51.134;16.980;2023-07-13T05:53:11;3.60;;;3.30;;
76848;SDS011;65814;51.134;16.980;2023-07-13T05:55:44;5.10;;;3.10;;
76848;SDS011;65814;51.134;16.980;2023-07-13T05:58:16;5.00;;;4.00;;
76848;SDS011;65814;51.134;16.980;2023-07-13T06:00:44;5.50;;;3.20;;
76848;SDS011;65814;51.134;16.980;2023-07-13T06:03:13;3.90;;;3.00;;
76848;SDS011;65814;51.134;16.980;2023-07-13T06:05:41;5.50;;;4.50;;
76848;SDS011;65814;51.134;16.980;2023-07-13T06:08:09;5.50;;;3.40;;
76848;SDS011;65814;51.134;16.980;2023-07-13T06:10:37;4.10;;;3.70;;
76848;SDS011;65814;51.134;16.980;2023-07-13T06:13:05;6.70;;;3.90;;
76848;SDS011;65814;51.134;16.980;2023-07-13T06:15:33;5.30;;;3.70;;
76848;SDS011;65814;51.134;16.980;2023-07-13T06:18:01;6.10;;;4.30;;
76848;SDS011;65814;51.134;16.980;2023-07-13T06:20:29;5.70;;;3.70;;
76848;SDS011;65814;51.134;16.980;2023-07-13T06:22:57;5.60;;;3.70;;
76848;SDS011;65814;51.134;16.980;2023-07-13T06:25:26;4.30;;;3.40;;
76848;SDS011;65814;51.134;16.980;2023-07-13T06:27:54;5.80;;;4.50;;
76848;SDS011;65814;51.134;16.980;2023-07-13T06:30:22;5.30;;;4.00;;
76848;SDS011;65814;51.134;16.980;2023-07-13T06:32:50;4.40;;;3.70;;
76848;SDS011;65814;51.134;16.980;2023-07-13T06:35:18;4.40;;;3.50;;
76848;SDS011;65814;51.134;16.980;2023-07-13T06:37:46;7.90;;;3.90;;
76848;SDS011;65814;51.134;16.980;2023-07-13T06:40:14;6.20;;;3.40;;
76848;SDS011;65814;51.134;16.980;2023-07-13T06:42:43;6.30;;;4.60;;
76848;SDS011;65814;51.134;16.980;2023-07-13T06:45:10;7.70;;;4.00;;
76848;SDS011;65814;51.134;16.980;2023-07-13T06:47:38;6.20;;;4.60;;
76848;SDS011;65814;51.134;16.980;2023-07-13T06:50:07;5.10;;;3.70;;
76848;SDS011;65814;51.134;16.980;2023-07-13T06:52:35;5.10;;;4.30;;
76848;SDS011;65814;51.134;16.980;2023-07-13T06:55:03;5.40;;;4.10;;
76848;SDS011;65814;51.134;16.980;2023-07-13T06:57:31;6.60;;;3.90;;
76848;SDS011;65814;51.134;16.980;2023-07-13T06:59:59;7.20;;;4.60;;
76848;SDS011;65814;51.134;16.980;2023-07-13T07:02:26;4.70;;;4.00;;
76848;SDS011;65814;51.134;16.980;2023-07-13T07:04:54;6.00;;;4.50;;
76848;SDS011;65814;51.134;16.980;2023-07-13T07:07:26;5.00;;;4.10;;
76848;SDS011;65814;51.134;16.980;2023-07-13T07:09:54;4.60;;;4.10;;
76848;SDS011;65814;51.134;16.980;2023-07-13T07:12:22;6.90;;;5.30;;
76848;SDS011;65814;51.134;16.980;2023-07-13T07:14:50;5.70;;;4.70;;
76848;SDS011;65814;51.134;16.980;2023-07-13T07:17:18;6.40;;;4.80;;
76848;SDS011;65814;51.134;16.980;2023-07-13T07:19:45;6.90;;;4.70;;
76848;SDS011;65814;51.134;16.980;2023-07-13T07:22:13;7.20;;;5.20;;
76848;SDS011;65814;51.134;16.980;2023-07-13T07:24:41;5.70;;;5.20;;
76848;SDS011;65814;51.134;16.980;2023-07-13T07:27:09;5.00;;;4.40;;
76848;SDS011;65814;51.134;16.980;2023-07-13T07:29:40;7.80;;;5.10;;
76848;SDS011;65814;51.134;16.980;2023-07-13T07:32:15;8.20;;;4.50;;
76848;SDS011;65814;51.134;16.980;2023-07-13T07:35:03;6.50;;;4.50;;
76848;SDS011;65814;51.134;16.980;2023-07-13T07:37:31;5.00;;;4.40;;
76848;SDS011;65814;51.134;16.980;2023-07-13T07:40:02;8.00;;;4.70;;
76848;SDS011;65814;51.134;16.980;2023-07-13T07:42:33;4.90;;;4.30;;
76848;SDS011;65814;51.134;16.980;2023-07-13T07:45:01;7.30;;;5.00;;
76848;SDS011;65814;51.134;16.980;2023-07-13T07:47:29;5.50;;;4.30;;
76848;SDS011;65814;51.134;16.980;2023-07-13T07:49:57;5.40;;;4.30;;
76848;SDS011;65814;51.134;16.980;2023-07-13T07:52:26;5.70;;;4.60;;
76848;SDS011;65814;51.134;16.980;2023-07-13T07:54:54;7.30;;;5.50;;
76848;SDS011;65814;51.134;16.980;2023-07-13T07:57:25;5.80;;;4.80;;
76848;SDS011;65814;51.134;16.980;2023-07-13T07:59:55;6.10;;;4.80;;
76848;SDS011;65814;51.134;16.980;2023-07-13T08:02:26;5.90;;;4.70;;
76848;SDS011;65814;51.134;16.980;2023-07-13T08:04:57;6.70;;;5.60;;
76848;SDS011;65814;51.134;16.980;2023-07-13T08:07:29;7.30;;;4.50;;
76848;SDS011;65814;51.134;16.980;2023-07-13T08:09:58;6.70;;;4.70;;
76848;SDS011;65814;51.134;16.980;2023-07-13T08:12:26;6.40;;;4.60;;
76848;SDS011;65814;51.134;16.980;2023-07-13T08:14:57;7.20;;;5.20;;
76848;SDS011;65814;51.134;16.980;2023-07-13T08:17:26;6.40;;;5.20;;
76848;SDS011;65814;51.134;16.980;2023-07-13T08:19:54;9.10;;;5.40;;
76848;SDS011;65814;51.134;16.980;2023-07-13T08:22:22;9.30;;;6.10;;
76848;SDS011;65814;51.134;16.980;2023-07-13T08:24:50;6.00;;;5.10;;
76848;SDS011;65814;51.134;16.980;2023-07-13T08:27:24;6.80;;;5.10;;
76848;SDS011;65814;51.134;16.980;2023-07-13T08:29:53;6.00;;;4.70;;
76848;SDS011;65814;51.134;16.980;2023-07-13T08:32:21;6.20;;;4.80;;
76848;SDS011;65814;51.134;16.980;2023-07-13T08:34:50;4.80;;;4.30;;
76848;SDS011;65814;51.134;16.980;2023-07-13T08:37:18;5.40;;;4.80;;
76848;SDS011;65814;51.134;16.980;2023-07-13T08:39:47;6.70;;;4.90;;
76848;SDS011;65814;51.134;16.980;2023-07-13T08:42:22;4.50;;;4.00;;
76848;SDS011;65814;51.134;16.980;2023-07-13T08:47:34;4.40;;;3.90;;
76848;SDS011;65814;51.134;16.980;2023-07-13T08:50:03;6.10;;;4.60;;
76848;SDS011;65814;51.134;16.980;2023-07-13T08:52:36;5.40;;;4.50;;
76848;SDS011;65814;51.134;16.980;2023-07-13T08:55:16;4.40;;;4.00;;
76848;SDS011;65814;51.134;16.980;2023-07-13T08:57:50;6.90;;;4.80;;
76848;SDS011;65814;51.134;16.980;2023-07-13T09:00:21;6.20;;;4.30;;
76848;SDS011;65814;51.134;16.980;2023-07-13T09:02:54;5.30;;;4.10;;
76848;SDS011;65814;51.134;16.980;2023-07-13T09:05:32;6.10;;;4.70;;
76848;SDS011;65814;51.134;16.980;2023-07-13T09:10:46;5.80;;;4.30;;
76848;SDS011;65814;51.134;16.980;2023-07-13T09:13:28;6.60;;;5.00;;
76848;SDS011;65814;51.134;16.980;2023-07-13T09:16:03;7.60;;;4.70;;
76848;SDS011;65814;51.134;16.980;2023-07-13T09:18:33;7.20;;;4.00;;
76848;SDS011;65814;51.134;16.980;2023-07-13T09:23:41;8.50;;;4.30;;
76848;SDS011;65814;51.134;16.980;2023-07-13T09:26:12;6.50;;;3.80;;
76848;SDS011;65814;51.134;16.980;2023-07-13T09:28:45;5.80;;;4.00;;
76848;SDS011;65814;51.134;16.980;2023-07-13T09:31:16;7.80;;;3.60;;
76848;SDS011;65814;51.134;16.980;2023-07-13T09:33:57;5.10;;;4.50;;
76848;SDS011;65814;51.134;16.980;2023-07-13T09:36:28;4.90;;;3.50;;
76848;SDS011;65814;51.134;16.980;2023-07-13T09:39:03;4.40;;;3.70;;
76848;SDS011;65814;51.134;16.980;2023-07-13T09:41:47;5.10;;;3.70;;
76848;SDS011;65814;51.134;16.980;2023-07-13T09:44:27;5.00;;;3.80;;
76848;SDS011;65814;51.134;16.980;2023-07-13T09:46:59;4.60;;;3.70;;
76848;SDS011;65814;51.134;16.980;2023-07-13T09:49:33;6.40;;;4.00;;
76848;SDS011;65814;51.134;16.980;2023-07-13T09:52:04;5.60;;;3.50;;
76848;SDS011;65814;51.134;16.980;2023-07-13T09:54:35;4.90;;;3.60;;
76848;SDS011;65814;51.134;16.980;2023-07-13T09:57:13;4.80;;;3.10;;
76848;SDS011;65814;51.134;16.980;2023-07-13T09:59:46;3.90;;;2.70;;
76848;SDS011;65814;51.134;16.980;2023-07-13T10:02:25;4.30;;;3.60;;
76848;SDS011;65814;51.134;16.980;2023-07-13T10:05:09;6.10;;;3.10;;
76848;SDS011;65814;51.134;16.980;2023-07-13T10:07:39;3.40;;;2.70;;
76848;SDS011;65814;51.134;16.980;2023-07-13T10:10:16;4.30;;;2.90;;
76848;SDS011;65814;51.134;16.980;2023-07-13T10:12:47;4.60;;;3.00;;
76848;SDS011;65814;51.134;16.980;2023-07-13T10:15:20;4.80;;;2.50;;
76848;SDS011;65814;51.134;16.980;2023-07-13T10:17:52;4.00;;;2.60;;
76848;SDS011;65814;51.134;16.980;2023-07-13T10:20:23;3.10;;;2.80;;
76848;SDS011;65814;51.134;16.980;2023-07-13T10:25:34;4.00;;;3.00;;
76848;SDS011;65814;51.134;16.980;2023-07-13T10:28:11;4.20;;;2.40;;
76848;SDS011;65814;51.134;16.980;2023-07-13T10:30:47;3.90;;;2.40;;
76848;SDS011;65814;51.134;16.980;2023-07-13T10:33:17;4.20;;;3.20;;
76848;SDS011;65814;51.134;16.980;2023-07-13T10:35:45;3.80;;;2.50;;
76848;SDS011;65814;51.134;16.980;2023-07-13T10:38:20;3.90;;;2.40;;
76848;SDS011;65814;51.134;16.980;2023-07-13T10:40:54;5.40;;;2.40;;
76848;SDS011;65814;51.134;16.980;2023-07-13T10:43:26;2.70;;;2.10;;
76848;SDS011;65814;51.134;16.980;2023-07-13T10:45:55;5.60;;;3.50;;
76848;SDS011;65814;51.134;16.980;2023-07-13T10:48:24;4.00;;;2.80;;
76848;SDS011;65814;51.134;16.980;2023-07-13T10:50:52;5.60;;;2.20;;
76848;SDS011;65814;51.134;16.980;2023-07-13T10:53:22;4.30;;;2.20;;
76848;SDS011;65814;51.134;16.980;2023-07-13T10:58:24;4.00;;;2.60;;
76848;SDS011;65814;51.134;16.980;2023-07-13T11:03:35;5.10;;;2.80;;
76848;SDS011;65814;51.134;16.980;2023-07-13T11:12:00;4.30;;;2.60;;
76848;SDS011;65814;51.134;16.980;2023-07-13T11:14:34;4.50;;;2.50;;
76848;SDS011;65814;51.134;16.980;2023-07-13T11:17:33;4.40;;;2.50;;
76848;SDS011;65814;51.134;16.980;2023-07-13T11:25:41;5.30;;;2.50;;
76848;SDS011;65814;51.134;16.980;2023-07-13T11:30:42;3.90;;;2.50;;
76848;SDS011;65814;51.134;16.980;2023-07-13T11:33:21;5.10;;;3.30;;
76848;SDS011;65814;51.134;16.980;2023-07-13T11:38:43;3.80;;;3.20;;
76848;SDS011;65814;51.134;16.980;2023-07-13T11:41:23;3.70;;;2.70;;
76848;SDS011;65814;51.134;16.980;2023-07-13T11:43:54;3.50;;;2.30;;
76848;SDS011;65814;51.134;16.980;2023-07-13T11:46:50;2.60;;;2.40;;
76848;SDS011;65814;51.134;16.980;2023-07-13T11:49:24;4.60;;;3.60;;
76848;SDS011;65814;51.134;16.980;2023-07-13T11:51:54;3.00;;;2.50;;
76848;SDS011;65814;51.134;16.980;2023-07-13T11:57:43;3.70;;;2.50;;
76848;SDS011;65814;51.134;16.980;2023-07-13T11:59:57;3.20;;;2.50;;
76848;SDS011;65814;51.134;16.980;2023-07-13T12:02:29;2.80;;;2.50;;
76848;SDS011;65814;51.134;16.980;2023-07-13T12:05:00;3.80;;;2.10;;
76848;SDS011;65814;51.134;16.980;2023-07-13T12:07:32;3.10;;;2.50;;
76848;SDS011;65814;51.134;16.980;2023-07-13T12:12:48;4.20;;;2.40;;
76848;SDS011;65814;51.134;16.980;2023-07-13T12:15:20;4.20;;;2.50;;
76848;SDS011;65814;51.134;16.980;2023-07-13T12:17:52;3.30;;;2.00;;
76848;SDS011;65814;51.134;16.980;2023-07-13T12:20:25;6.30;;;2.80;;
76848;SDS011;65814;51.134;16.980;2023-07-13T12:22:54;5.60;;;2.80;;
76848;SDS011;65814;51.134;16.980;2023-07-13T12:25:22;5.60;;;3.00;;
76848;SDS011;65814;51.134;16.980;2023-07-13T12:27:51;3.00;;;2.50;;
76848;SDS011;65814;51.134;16.980;2023-07-13T12:33:07;2.40;;;2.20;;
76848;SDS011;65814;51.134;16.980;2023-07-13T12:35:42;3.20;;;2.30;;
76848;SDS011;65814;51.134;16.980;2023-07-13T12:38:15;3.90;;;2.70;;
76848;SDS011;65814;51.134;16.980;2023-07-13T12:40:43;3.80;;;2.20;;
76848;SDS011;65814;51.134;16.980;2023-07-13T12:43:12;3.70;;;2.50;;
76848;SDS011;65814;51.134;16.980;2023-07-13T12:48:29;7.30;;;2.30;;
76848;SDS011;65814;51.134;16.980;2023-07-13T12:51:14;3.00;;;2.70;;
76848;SDS011;65814;51.134;16.980;2023-07-13T12:53:43;4.40;;;2.20;;
76848;SDS011;65814;51.134;16.980;2023-07-13T12:56:18;3.10;;;2.30;;
76848;SDS011;65814;51.134;16.980;2023-07-13T12:58:49;3.00;;;2.70;;
76848;SDS011;65814;51.134;16.980;2023-07-13T13:01:22;2.80;;;2.50;;
76848;SDS011;65814;51.134;16.980;2023-07-13T13:03:51;4.30;;;2.50;;
76848;SDS011;65814;51.134;16.980;2023-07-13T13:06:22;2.90;;;2.30;;
76848;SDS011;65814;51.134;16.980;2023-07-13T13:08:55;5.10;;;2.80;;
76848;SDS011;65814;51.134;16.980;2023-07-13T13:11:26;4.30;;;2.90;;
76848;SDS011;65814;51.134;16.980;2023-07-13T13:13:55;3.60;;;2.20;;
76848;SDS011;65814;51.134;16.980;2023-07-13T13:18:54;3.70;;;2.20;;
76848;SDS011;65814;51.134;16.980;2023-07-13T13:21:24;2.60;;;2.10;;
76848;SDS011;65814;51.134;16.980;2023-07-13T13:23:53;4.70;;;2.60;;
76848;SDS011;65814;51.134;16.980;2023-07-13T13:26:22;3.50;;;2.10;;
76848;SDS011;65814;51.134;16.980;2023-07-13T13:28:50;3.30;;;2.00;;
76848;SDS011;65814;51.134;16.980;2023-07-13T13:31:18;3.10;;;2.20;;
76848;SDS011;65814;51.134;16.980;2023-07-13T13:33:46;3.80;;;2.00;;
76848;SDS011;65814;51.134;16.980;2023-07-13T13:36:16;4.50;;;2.50;;
76848;SDS011;65814;51.134;16.980;2023-07-13T13:38:48;5.10;;;2.00;;
76848;SDS011;65814;51.134;16.980;2023-07-13T13:41:17;2.90;;;2.00;;
76848;SDS011;65814;51.134;16.980;2023-07-13T13:43:45;2.00;;;1.70;;
76848;SDS011;65814;51.134;16.980;2023-07-13T13:46:23;2.80;;;1.80;;
76848;SDS011;65814;51.134;16.980;2023-07-13T13:48:57;2.10;;;1.70;;
76848;SDS011;65814;51.134;16.980;2023-07-13T13:51:25;2.60;;;1.80;;
76848;SDS011;65814;51.134;16.980;2023-07-13T13:53:53;5.00;;;2.40;;
76848;SDS011;65814;51.134;16.980;2023-07-13T13:56:21;3.50;;;2.20;;
76848;SDS011;65814;51.134;16.980;2023-07-13T13:58:49;3.10;;;2.00;;
76848;SDS011;65814;51.134;16.980;2023-07-13T14:01:20;2.60;;;2.10;;
76848;SDS011;65814;51.134;16.980;2023-07-13T14:03:51;6.00;;;2.70;;
76848;SDS011;65814;51.134;16.980;2023-07-13T14:06:19;3.00;;;2.00;;
76848;SDS011;65814;51.134;16.980;2023-07-13T14:08:47;2.80;;;1.90;;
76848;SDS011;65814;51.134;16.980;2023-07-13T14:11:16;2.50;;;2.00;;
76848;SDS011;65814;51.134;16.980;2023-07-13T14:13:45;4.50;;;2.60;;
76848;SDS011;65814;51.134;16.980;2023-07-13T14:16:17;2.90;;;1.60;;
76848;SDS011;65814;51.134;16.980;2023-07-13T14:18:46;2.40;;;1.60;;
76848;SDS011;65814;51.134;16.980;2023-07-13T14:21:16;2.90;;;1.80;;
76848;SDS011;65814;51.134;16.980;2023-07-13T14:23:46;4.00;;;1.70;;
76848;SDS011;65814;51.134;16.980;2023-07-13T14:26:16;3.90;;;1.80;;
76848;SDS011;65814;51.134;16.980;2023-07-13T14:28:53;2.40;;;1.80;;
76848;SDS011;65814;51.134;16.980;2023-07-13T14:31:24;2.60;;;1.60;;
76848;SDS011;65814;51.134;16.980;2023-07-13T14:33:57;3.60;;;1.90;;
76848;SDS011;65814;51.134;16.980;2023-07-13T14:36:36;4.60;;;2.20;;
76848;SDS011;65814;51.134;16.980;2023-07-13T14:41:50;2.00;;;1.40;;
76848;SDS011;65814;51.134;16.980;2023-07-13T14:44:21;3.80;;;2.00;;
76848;SDS011;65814;51.134;16.980;2023-07-13T14:46:53;3.00;;;2.10;;
76848;SDS011;65814;51.134;16.980;2023-07-13T14:49:23;4.30;;;1.90;;
76848;SDS011;65814;51.134;16.980;2023-07-13T14:51:54;6.00;;;1.80;;
76848;SDS011;65814;51.134;16.980;2023-07-13T14:54:25;2.80;;;1.60;;
76848;SDS011;65814;51.134;16.980;2023-07-13T14:56:54;5.60;;;2.60;;
76848;SDS011;65814;51.134;16.980;2023-07-13T14:59:21;2.80;;;1.80;;
76848;SDS011;65814;51.134;16.980;2023-07-13T15:01:50;2.40;;;1.60;;
76848;SDS011;65814;51.134;16.980;2023-07-13T15:04:18;3.10;;;1.70;;
76848;SDS011;65814;51.134;16.980;2023-07-13T15:06:54;2.80;;;2.10;;
76848;SDS011;65814;51.134;16.980;2023-07-13T15:09:24;4.30;;;2.10;;
76848;SDS011;65814;51.134;16.980;2023-07-13T15:11:54;6.30;;;2.70;;
76848;SDS011;65814;51.134;16.980;2023-07-13T15:14:23;7.20;;;2.10;;
76848;SDS011;65814;51.134;16.980;2023-07-13T15:16:55;2.40;;;1.80;;
76848;SDS011;65814;51.134;16.980;2023-07-13T15:19:24;3.50;;;2.30;;
76848;SDS011;65814;51.134;16.980;2023-07-13T15:21:54;3.40;;;2.40;;
76848;SDS011;65814;51.134;16.980;2023-07-13T15:24:23;4.70;;;2.30;;
76848;SDS011;65814;51.134;16.980;2023-07-13T15:26:52;3.40;;;2.40;;
76848;SDS011;65814;51.134;16.980;2023-07-13T15:29:20;3.50;;;2.10;;
76848;SDS011;65814;51.134;16.980;2023-07-13T15:31:48;4.40;;;2.30;;
76848;SDS011;65814;51.134;16.980;2023-07-13T15:34:18;4.00;;;2.00;;
76848;SDS011;65814;51.134;16.980;2023-07-13T15:36:48;6.80;;;2.60;;
76848;SDS011;65814;51.134;16.980;2023-07-13T15:39:16;3.60;;;2.20;;
76848;SDS011;65814;51.134;16.980;2023-07-13T15:41:44;3.20;;;2.20;;
76848;SDS011;65814;51.134;16.980;2023-07-13T15:44:23;4.60;;;3.20;;